Aviation Digital Data Service (ADDS)

Output produced by METARs form (0946 UTC 17 November 2018)
found at http://www.aviationweather.gov/metar/data/
 
LFRN 170930Z AUTO 09007KT 1500 1300 R28L/1900D R10R/P2000 BR VV/// 06/06 Q1021 BECMG 9999 NSW SCT012
TAF LFRN 170500Z 1706/1806 10010KT 2000 BR OVC002 
     TEMPO 1706/1708 0600 FG VV/// 
     BECMG 1708/1710 4000 BR BKN005 
     BECMG 1711/1713 9999 NSW SCT012 
     BECMG 1713/1715 CAVOK 
     PROB30 
     TEMPO 1803/1806 BKN012